createdAt,value
2023-02-16T00:22:33.068Z,102126.38
2023-02-16T00:59:21.960Z,102082.22
2023-02-16T01:01:50.437Z,102094.78
2023-02-16T01:04:23.868Z,102074.00
2023-02-16T01:07:09.174Z,102087.81
2023-02-16T01:09:54.726Z,102088.03
2023-02-16T01:12:23.639Z,102074.63
2023-02-16T01:14:54.374Z,102071.97
2023-02-16T02:03:38.636Z,101983.94
2023-02-16T02:06:10.293Z,101997.69
2023-02-16T02:08:39.663Z,101992.16
2023-02-16T02:11:11.012Z,101981.44
2023-02-16T02:13:41.059Z,101985.03
2023-02-16T02:16:09.903Z,101947.63
2023-02-16T02:18:44.961Z,101962.47
2023-02-16T02:21:55.479Z,101968.25
2023-02-16T02:24:45.911Z,101971.28
2023-02-16T02:27:17.650Z,101965.13
2023-02-16T04:49:12.081Z,101831.69
2023-02-16T05:10:42.796Z,101802.97
2023-02-16T05:22:44.759Z,101795.41
2023-02-16T05:27:56.539Z,101832.84
2023-02-16T05:30:24.614Z,101838.16
2023-02-16T05:32:52.798Z,101825.56
2023-02-16T05:35:20.864Z,101818.97
2023-02-16T05:37:48.931Z,101815.94
2023-02-16T05:40:18.388Z,101813.97
2023-02-16T05:42:46.403Z,101815.66
2023-02-16T05:45:14.332Z,101819.16
2023-02-16T05:47:42.706Z,101815.66
2023-02-16T06:18:09.783Z,101821.22
2023-02-16T06:32:50.193Z,101833.75
2023-02-16T06:46:53.598Z,101855.06
2023-02-16T06:53:35.611Z,101847.34
2023-02-16T07:01:13.303Z,101836.78
2023-02-16T07:12:52.541Z,101857.56
2023-02-16T07:17:06.146Z,101857.28
2023-02-16T07:20:00.274Z,101895.25
2023-02-16T07:33:40.290Z,101903.34
2023-02-16T07:37:24.446Z,101900.31
2023-02-16T07:40:51.615Z,101869.63
2023-02-16T07:43:22.470Z,101911.81
2023-02-16T07:45:50.826Z,101904.50
2023-02-16T07:48:19.770Z,101908.75
2023-02-16T07:50:50.095Z,101906.94
2023-02-16T07:53:18.349Z,101910.31
2023-02-16T07:55:47.043Z,101908.03
2023-02-16T07:58:27.120Z,101914.63
2023-02-16T08:04:06.080Z,101916.31
2023-02-16T08:09:32.149Z,101917.06
2023-02-16T08:12:02.709Z,101914.38
2023-02-16T08:14:30.928Z,101916.94
2023-02-16T08:17:00.331Z,101930.09
2023-02-16T08:19:31.103Z,101937.09
2023-02-16T08:21:59.721Z,101936.00
2023-02-16T08:24:34.056Z,101941.00
2023-02-16T08:27:04.040Z,101941.97
2023-02-16T08:29:35.970Z,101964.19
2023-02-16T08:32:07.897Z,101959.84
2023-02-16T08:38:07.195Z,101941.22
2023-02-16T08:48:09.925Z,101960.63
2023-02-16T08:51:18.830Z,101970.75
2023-02-16T08:57:55.543Z,101978.59
2023-02-16T09:08:15.019Z,101953.16
2023-02-16T09:39:42.987Z,102002.84
2023-02-16T09:42:31.170Z,101992.31
2023-02-16T09:45:06.187Z,102019.00
2023-02-16T09:47:35.905Z,102013.16
2023-02-16T09:50:09.605Z,102025.81
2023-02-16T09:52:40.374Z,102039.13
2023-02-16T09:55:09.488Z,102047.13
2023-02-16T10:05:48.934Z,102053.25
2023-02-16T10:08:21.260Z,102064.78
2023-02-16T10:11:47.078Z,102070.97
2023-02-16T10:15:11.074Z,102062.66
2023-02-16T10:17:52.368Z,102029.59
2023-02-16T10:20:58.181Z,102063.41
2023-02-16T10:23:48.842Z,102070.41
2023-02-16T10:26:22.811Z,102071.59
2023-02-16T10:28:55.567Z,102078.31
2023-02-16T10:31:32.602Z,102081.56
2023-02-16T10:34:34.770Z,102067.72
2023-02-16T10:37:27.669Z,102064.78
2023-02-16T10:40:26.029Z,102077.44
2023-02-16T10:42:57.796Z,102088.94
2023-02-16T10:45:28.505Z,102089.91
2023-02-16T10:47:56.527Z,102087.13
2023-02-16T10:50:26.097Z,102091.38
2023-02-16T10:52:56.395Z,102089.16
2023-02-16T10:55:25.885Z,102091.69
2023-02-16T10:57:56.850Z,102079.75
2023-02-16T11:00:31.984Z,102084.41
2023-02-16T11:03:01.136Z,102103.06
2023-02-16T11:05:32.296Z,102086.75
2023-02-16T11:08:03.998Z,102096.94
2023-02-16T11:10:58.327Z,102108.44
2023-02-16T11:13:31.476Z,102100.00
2023-02-16T11:16:00.275Z,102096.59
2023-02-16T11:21:55.753Z,102102.69
2023-02-16T11:24:29.913Z,102108.13
2023-02-16T11:27:03.693Z,102111.41
2023-02-16T11:33:57.954Z,102119.56
2023-02-16T11:36:33.042Z,102116.28
2023-02-16T11:39:02.645Z,102120.13
2023-02-16T11:41:35.904Z,102115.03
2023-02-16T11:44:05.481Z,102121.09
2023-02-16T11:46:48.288Z,102119.44
2023-02-16T11:50:16.216Z,102133.94
2023-02-16T11:57:57.396Z,102120.97
2023-02-16T12:00:26.710Z,102122.78
2023-02-16T12:03:18.098Z,102118.59
2023-02-16T12:06:02.484Z,102115.53
2023-02-16T12:08:44.670Z,102117.13
2023-02-16T12:11:26.284Z,102116.00
2023-02-16T12:14:20.414Z,102122.06
2023-02-16T12:16:52.931Z,102123.19
2023-02-16T12:19:29.590Z,102132.03
2023-02-16T12:21:59.879Z,102137.06
2023-02-16T12:24:35.165Z,102137.34
2023-02-16T12:27:08.242Z,102135.88
2023-02-16T12:29:55.762Z,102137.13
2023-02-16T12:33:42.452Z,102108.34
2023-02-16T12:36:48.403Z,102147.25
2023-02-16T12:39:20.829Z,102139.66
2023-02-16T12:41:57.916Z,102134.72
2023-02-16T12:44:34.060Z,102146.84
2023-02-16T12:48:03.959Z,102165.94
2023-02-16T12:50:08.002Z,102158.81
2023-02-16T12:52:42.584Z,102167.63
2023-02-16T12:55:35.942Z,102169.06
2023-02-16T12:58:30.178Z,102166.91
2023-02-16T13:05:24.941Z,102158.78
2023-02-16T13:14:00.055Z,102158.91
2023-02-16T13:19:20.894Z,102189.97
2023-02-16T13:22:49.220Z,102186.00
2023-02-16T13:25:35.030Z,102186.47
2023-02-16T13:28:08.572Z,102193.13
2023-02-16T13:30:54.152Z,102181.63
2023-02-16T13:33:52.836Z,102186.84
2023-02-16T13:36:36.061Z,102184.56
2023-02-16T13:39:43.982Z,102192.06
2023-02-16T13:42:53.621Z,102187.47
2023-02-16T13:45:26.026Z,102178.75
2023-02-16T13:49:02.665Z,102187.22
2023-02-16T13:52:39.358Z,102168.63
2023-02-16T13:55:25.706Z,102177.78
2023-02-16T13:59:06.677Z,102157.81
2023-02-16T14:01:45.041Z,102172.69
2023-02-16T14:09:00.521Z,102162.22
2023-02-16T14:22:52.738Z,102174.28
2023-02-16T14:26:25.525Z,102181.34
2023-02-16T14:29:42.836Z,102171.34
2023-02-16T14:33:25.377Z,102187.19
2023-02-16T14:36:57.845Z,102182.81
2023-02-16T14:40:07.033Z,102170.47
2023-02-16T14:46:33.485Z,102183.00
2023-02-16T14:50:16.198Z,102179.84
2023-02-16T14:57:39.934Z,102169.69
2023-02-16T15:04:35.028Z,102194.22
2023-02-16T15:07:47.069Z,102185.88
2023-02-16T15:10:46.886Z,102187.75
2023-02-16T15:14:12.560Z,102194.66
2023-02-16T15:17:03.707Z,102204.81
2023-02-16T15:24:16.965Z,102188.16
2023-02-16T15:27:52.695Z,102204.34
2023-02-16T15:30:31.706Z,102197.00
2023-02-16T15:33:10.583Z,102191.94
2023-02-16T15:36:36.828Z,102202.06
2023-02-16T15:40:46.400Z,102203.16
2023-02-16T15:43:45.551Z,102211.63
2023-02-16T15:53:59.084Z,102165.44
2023-02-16T16:01:08.727Z,102206.09
2023-02-16T16:08:36.580Z,102216.25
2023-02-16T16:11:34.734Z,102228.00
2023-02-16T16:14:27.826Z,102217.22
2023-02-16T16:17:56.270Z,102216.59
2023-02-16T16:38:03.688Z,102225.44
2023-02-16T16:44:51.219Z,102211.41
2023-02-16T16:51:23.568Z,102219.03
2023-02-16T16:54:03.094Z,102209.34
2023-02-16T16:57:03.102Z,102214.28
2023-02-16T16:59:39.707Z,102211.41
2023-02-16T17:09:23.074Z,102213.47
2023-02-16T17:12:13.856Z,102216.72
2023-02-16T17:15:04.440Z,102223.88
2023-02-16T17:17:53.332Z,102199.56
2023-02-16T17:20:47.588Z,102204.16
2023-02-16T17:24:09.942Z,102209.72
2023-02-16T17:31:12.652Z,102223.59
2023-02-16T17:38:31.660Z,102226.53
2023-02-16T17:41:46.696Z,102221.69
2023-02-16T17:45:27.625Z,102224.94
2023-02-16T17:52:41.606Z,102220.09
2023-02-16T17:56:25.053Z,102222.63
2023-02-16T17:59:51.372Z,102225.16
2023-02-16T18:10:14.187Z,102230.75
2023-02-16T18:21:02.617Z,102232.44
2023-02-16T18:24:28.141Z,102232.28
2023-02-16T18:28:00.919Z,102260.72
2023-02-16T18:31:42.304Z,102251.31
2023-02-16T18:35:00.678Z,102250.09
2023-02-16T18:38:49.281Z,102251.06
2023-02-16T18:42:25.363Z,102254.44
2023-02-16T18:45:34.986Z,102262.56
2023-02-16T18:48:44.163Z,102272.13
2023-02-16T18:51:47.850Z,102279.13
2023-02-16T18:55:46.456Z,102256.38
2023-02-16T19:02:24.970Z,102277.19
2023-02-16T19:08:46.638Z,102287.84
2023-02-16T19:12:22.178Z,102288.69
2023-02-16T19:16:05.980Z,102292.06
2023-02-16T19:19:44.196Z,102299.09
2023-02-16T19:23:01.933Z,102315.94
2023-02-16T19:34:06.297Z,102330.91
2023-02-16T19:45:31.492Z,102337.72
2023-02-16T20:14:02.068Z,102343.97
2023-02-16T20:17:09.583Z,102341.84
2023-02-16T20:45:14.194Z,102352.72
2023-02-16T20:48:31.505Z,102365.78
2023-02-16T21:01:16.101Z,102372.06
2023-02-16T21:12:23.596Z,102363.72
2023-02-16T21:38:01.435Z,102366.78
2023-02-16T22:07:33.567Z,102396.63
2023-02-16T23:14:32.700Z,102381.22
2023-02-16T23:35:22.988Z,102375.88
2023-02-16T23:39:27.223Z,102380.25
2023-02-16T23:51:01.398Z,102391.34
2023-02-16T23:54:14.313Z,102389.44
2023-02-16T23:57:34.115Z,102390.28
